This is the latest recevied weather packets stored in our database for station/object DL8BZ-10. If no packets are shown the sender has not sent any weather packets the latest 10 day(s).
| Time | Temp. | Humidity | Pressure | Rain* | Wind** | Luminosity | Snow |
|---|---|---|---|---|---|---|---|
| 1788369645 | 23.89° C | 43% | 1019.6 hPa | - | - | - | - |
| 1788362433 | 32.22° C | 26% | 1018.8 hPa | - | - | - | - |
| 1788355215 | 30.56° C | 30% | 1019.1 hPa | - | - | - | - |
| 1788348002 | 28.89° C | 32% | 1019.6 hPa | - | - | - | - |
| 1788333570 | 23.33° C | 45% | 1019.7 hPa | - | - | - | - |
| 1788326362 | 20.56° C | 53% | 1019.6 hPa | - | - | - | - |
| 1788311942 | 20° C | 54% | 1020.3 hPa | - | - | - | - |
| 1788304731 | 20° C | 55% | 1020.4 hPa | - | - | - | - |
| 1788297521 | 20.56° C | 55% | 1020.6 hPa | - | - | - | - |
| 1788290311 | 21.67° C | 54% | 1020.3 hPa | - | - | - | - |
| 1788261471 | 26.11° C | 43% | 1019.1 hPa | - | - | - | - |
| 1788247064 | 23.33° C | 49% | 1018.2 hPa | - | - | - | - |
| 1788239843 | 21.11° C | 54% | 1017.4 hPa | - | - | - | - |
| 1788232635 | 20° C | 57% | 1016.7 hPa | - | - | - | - |
| 1788225427 | 20° C | 58% | 1016.5 hPa | - | - | - | - |
| 1788218215 | 20.56° C | 56% | 1015.8 hPa | - | - | - | - |
| 1788211005 | 21.11° C | 55% | 1015.2 hPa | - | - | - | - |
| 1788203795 | 21.67° C | 54% | 1013.6 hPa | - | - | - | - |
| 1788196588 | 24.44° C | 44% | 1011.7 hPa | - | - | - | - |
| 1788189378 | 24.44° C | 46% | 1010.8 hPa | - | - | - | - |
| 1788182166 | 26.11° C | 41% | 1010.4 hPa | - | - | - | - |
| 1788174956 | 30° C | 32% | 1009.5 hPa | - | - | - | - |
| 1788146113 | 21.11° C | 56% | 1009.7 hPa | - | - | - | - |
| 1788138903 | 21.11° C | 55% | 1010.3 hPa | - | - | - | - |
| 1788131693 | 21.11° C | 56% | 1010.9 hPa | - | - | - | - |
* Rain since midnight (hover to see other rain measurements)
** Current wind speed in m/s (hover to see current wind gust speed)